createdAt,value
2019-01-05T00:00:18.881Z,0.00
2019-01-05T00:01:18.852Z,0.00
2019-01-05T00:02:18.840Z,0.00
2019-01-05T00:03:18.833Z,0.00
2019-01-05T00:04:18.822Z,0.00
2019-01-05T00:05:18.827Z,0.00
2019-01-05T00:06:18.801Z,0.00
2019-01-05T00:07:18.785Z,0.00
2019-01-05T00:08:18.767Z,0.00
2019-01-05T00:09:18.793Z,0.00
2019-01-05T00:10:18.759Z,0.00
2019-01-05T00:11:18.767Z,0.00
2019-01-05T00:12:18.743Z,0.00
2019-01-05T00:13:18.725Z,0.00
2019-01-05T00:14:18.719Z,0.00
2019-01-05T00:15:18.723Z,0.00
2019-01-05T00:16:18.720Z,0.00
2019-01-05T00:17:18.683Z,0.00
2019-01-05T00:18:18.671Z,0.00
2019-01-05T00:19:18.654Z,0.00
2019-01-05T00:20:18.640Z,0.00
2019-01-05T00:21:19.735Z,0.00
2019-01-05T00:22:18.648Z,0.00
2019-01-05T00:23:18.618Z,0.00
2019-01-05T00:24:18.622Z,0.00
2019-01-05T00:25:18.591Z,0.00
2019-01-05T00:26:18.580Z,0.00
2019-01-05T00:27:28.669Z,0.00
2019-01-05T00:28:18.571Z,0.00
2019-01-05T00:29:27.405Z,0.00
2019-01-05T00:30:27.944Z,0.00
2019-01-05T00:31:18.526Z,0.00
2019-01-05T00:32:18.537Z,0.00
2019-01-05T00:33:18.507Z,0.00
2019-01-05T00:34:18.500Z,0.00
2019-01-05T00:35:18.493Z,0.00
2019-01-05T00:36:18.491Z,0.00
2019-01-05T00:37:18.501Z,0.00
2019-01-05T00:38:18.450Z,0.00
2019-01-05T00:39:18.469Z,0.00
2019-01-05T00:40:18.439Z,0.00
2019-01-05T00:41:18.422Z,0.00
2019-01-05T00:42:18.412Z,0.00
2019-01-05T00:43:18.432Z,0.00
2019-01-05T00:44:18.386Z,0.00
2019-01-05T00:45:18.378Z,0.00
2019-01-05T00:46:18.364Z,0.00
2019-01-05T00:47:18.361Z,0.00
2019-01-05T00:48:18.369Z,0.00
2019-01-05T00:49:18.342Z,0.00
2019-01-05T00:50:18.331Z,0.00
2019-01-05T00:51:18.313Z,0.00
2019-01-05T00:52:18.300Z,0.00
2019-01-05T00:53:18.330Z,0.00
2019-01-05T00:54:18.287Z,0.00
2019-01-05T00:55:18.272Z,0.00
2019-01-05T00:56:18.256Z,0.00
2019-01-05T00:57:18.258Z,0.00
2019-01-05T00:58:18.251Z,0.00
2019-01-05T00:59:18.275Z,0.00
2019-01-05T01:00:18.225Z,0.00
2019-01-05T01:01:18.236Z,0.00
2019-01-05T01:02:18.200Z,0.00
2019-01-05T01:03:18.183Z,0.00
2019-01-05T01:04:18.199Z,0.00
2019-01-05T01:05:18.216Z,0.00
2019-01-05T01:06:18.166Z,0.00
2019-01-05T01:07:18.149Z,0.00
2019-01-05T01:08:18.139Z,0.00
2019-01-05T01:09:18.140Z,0.00
2019-01-05T01:10:18.119Z,0.00
2019-01-05T01:11:18.107Z,0.00
2019-01-05T01:12:18.115Z,0.00
2019-01-05T01:13:18.108Z,0.00
2019-01-05T01:14:18.112Z,0.00
2019-01-05T01:15:18.065Z,0.00
2019-01-05T01:16:18.099Z,0.00
2019-01-05T01:17:18.100Z,0.00
2019-01-05T01:18:18.040Z,0.00
2019-01-05T01:19:18.019Z,0.00
2019-01-05T01:20:18.028Z,0.00
2019-01-05T01:21:17.998Z,0.00
2019-01-05T01:22:18.010Z,0.00
2019-01-05T01:23:17.969Z,0.00
2019-01-05T01:24:17.962Z,0.00
2019-01-05T01:25:17.977Z,0.00
2019-01-05T01:26:17.948Z,0.00
2019-01-05T01:27:17.938Z,0.00
2019-01-05T01:28:17.935Z,0.00
2019-01-05T01:29:17.908Z,0.00
2019-01-05T01:30:17.932Z,0.00
2019-01-05T01:31:17.930Z,0.00
2019-01-05T01:32:17.886Z,0.00
2019-01-05T01:33:17.869Z,0.00
2019-01-05T01:34:17.887Z,0.00
2019-01-05T01:35:17.869Z,0.00
2019-01-05T01:36:17.836Z,0.00
2019-01-05T01:37:17.834Z,0.00
2019-01-05T01:38:17.822Z,0.00
2019-01-05T01:39:17.809Z,0.00
2019-01-05T01:40:17.831Z,0.00
2019-01-05T01:41:17.777Z,0.00
2019-01-05T01:42:17.769Z,0.00
2019-01-05T01:43:17.766Z,0.00
2019-01-05T01:44:17.758Z,0.00
2019-01-05T01:45:17.747Z,0.00
2019-01-05T01:46:17.757Z,0.00
2019-01-05T01:47:17.719Z,0.00
2019-01-05T01:48:17.712Z,0.00
2019-01-05T01:49:17.697Z,0.00
2019-01-05T01:50:17.689Z,0.00
2019-01-05T01:51:17.767Z,0.00
2019-01-05T01:52:17.680Z,0.00
2019-01-05T01:53:17.662Z,0.00
2019-01-05T01:54:17.653Z,0.00
2019-01-05T01:55:17.636Z,0.00
2019-01-05T01:56:17.657Z,0.00
2019-01-05T01:57:17.618Z,0.00
2019-01-05T01:58:17.611Z,0.00
2019-01-05T01:59:26.490Z,0.00
2019-01-05T02:00:26.533Z,0.00
2019-01-05T02:01:17.571Z,0.00
2019-01-05T02:02:26.819Z,0.00
2019-01-05T02:03:26.601Z,0.00
2019-01-05T02:04:26.137Z,0.00
2019-01-05T02:05:26.168Z,0.00
2019-01-05T02:06:26.208Z,0.00
2019-01-05T02:07:25.600Z,0.00
2019-01-05T02:08:26.284Z,0.00
2019-01-05T02:09:17.480Z,0.00
2019-01-05T02:10:17.470Z,0.00
2019-01-05T02:11:17.465Z,0.00
2019-01-05T02:12:17.458Z,0.00
2019-01-05T02:13:17.460Z,0.00
2019-01-05T02:14:17.425Z,0.00
2019-01-05T02:15:17.413Z,0.00
2019-01-05T02:16:17.404Z,0.00
2019-01-05T02:17:17.399Z,0.00
2019-01-05T02:18:17.412Z,0.00
2019-01-05T02:19:17.376Z,0.00
2019-01-05T02:20:17.369Z,0.00
2019-01-05T02:21:17.372Z,0.00
2019-01-05T02:22:17.348Z,0.00
2019-01-05T02:23:17.336Z,0.00
2019-01-05T02:24:17.351Z,0.00
2019-01-05T02:25:17.313Z,0.00
2019-01-05T02:26:17.317Z,0.00
2019-01-05T02:27:17.306Z,0.00
2019-01-05T02:28:17.276Z,0.00
2019-01-05T02:29:17.305Z,0.00
2019-01-05T02:30:17.261Z,0.00
2019-01-05T02:31:17.249Z,0.00
2019-01-05T02:32:17.240Z,0.00
2019-01-05T02:33:17.225Z,0.00
2019-01-05T02:34:17.215Z,0.00
2019-01-05T02:35:17.229Z,0.00
2019-01-05T02:36:17.191Z,0.00
2019-01-05T02:37:17.192Z,0.00
2019-01-05T02:38:17.179Z,0.00
2019-01-05T02:39:17.166Z,0.00
2019-01-05T02:40:17.178Z,0.00
2019-01-05T02:41:17.141Z,0.00
2019-01-05T02:42:17.126Z,0.00
2019-01-05T02:43:17.127Z,0.00
2019-01-05T02:44:17.112Z,0.00
2019-01-05T02:45:17.124Z,0.00
2019-01-05T02:46:17.086Z,0.00
2019-01-05T02:47:17.072Z,0.00
2019-01-05T02:48:17.062Z,0.00
2019-01-05T02:49:17.057Z,0.00
2019-01-05T02:50:17.050Z,0.00
2019-01-05T02:51:17.072Z,0.00
2019-01-05T02:52:17.032Z,0.00
2019-01-05T02:53:17.013Z,0.00
2019-01-05T02:54:16.997Z,0.00
2019-01-05T02:55:16.988Z,0.00
2019-01-05T02:56:16.988Z,0.00
2019-01-05T02:57:17.005Z,0.00
2019-01-05T02:58:16.968Z,0.00
2019-01-05T02:59:16.944Z,0.00
2019-01-05T03:00:16.939Z,0.00
2019-01-05T03:01:16.931Z,0.00
2019-01-05T03:02:16.921Z,0.00
2019-01-05T03:03:16.951Z,0.00
2019-01-05T03:04:16.912Z,0.00
2019-01-05T03:05:16.886Z,0.00
2019-01-05T03:06:16.875Z,0.00
2019-01-05T03:07:16.859Z,0.00
2019-01-05T03:08:16.852Z,0.00
2019-01-05T03:09:16.867Z,0.00
2019-01-05T03:10:16.859Z,0.00
2019-01-05T03:11:16.823Z,0.00
2019-01-05T03:12:16.815Z,0.00
2019-01-05T03:13:16.797Z,0.00
2019-01-05T03:14:16.788Z,0.00
2019-01-05T03:15:16.809Z,0.00
2019-01-05T03:16:16.775Z,0.00
2019-01-05T03:17:16.762Z,0.00
2019-01-05T03:18:16.752Z,0.00
2019-01-05T03:19:16.741Z,0.00
2019-01-05T03:20:16.726Z,0.00
2019-01-05T03:21:16.744Z,0.00
2019-01-05T03:22:16.702Z,0.00
2019-01-05T03:23:16.702Z,0.00
2019-01-05T03:24:16.681Z,0.00
2019-01-05T03:25:16.673Z,0.00
2019-01-05T03:26:16.687Z,0.00
2019-01-05T03:27:16.659Z,0.00
2019-01-05T03:28:16.648Z,0.00
2019-01-05T03:29:16.625Z,0.00
2019-01-05T03:30:16.618Z,0.00
2019-01-05T03:31:16.646Z,0.00
2019-01-05T03:32:16.599Z,0.00
2019-01-05T03:33:16.593Z,0.00
2019-01-05T03:34:16.574Z,0.00
2019-01-05T03:35:16.563Z,0.00
2019-01-05T03:36:16.553Z,0.00
2019-01-05T03:37:16.571Z,0.00
2019-01-05T03:38:16.534Z,0.00
2019-01-05T03:39:16.532Z,0.00
2019-01-05T03:40:16.517Z,0.00
2019-01-05T03:41:16.497Z,0.00
2019-01-05T03:42:16.508Z,0.00
2019-01-05T03:43:16.479Z,0.00
2019-01-05T03:44:16.491Z,0.00
2019-01-05T03:45:16.462Z,0.00
2019-01-05T03:46:16.455Z,0.00
2019-01-05T03:47:16.469Z,0.00
2019-01-05T03:48:16.425Z,0.00
2019-01-05T03:49:16.423Z,0.00
2019-01-05T03:50:16.421Z,0.00
2019-01-05T03:51:16.397Z,0.00
2019-01-05T03:52:16.387Z,0.00
2019-01-05T03:53:16.397Z,0.00
2019-01-05T03:54:16.395Z,0.00
2019-01-05T03:55:16.349Z,0.00
2019-01-05T03:56:25.325Z,0.00
2019-01-05T03:57:16.357Z,0.00
2019-01-05T03:58:24.380Z,0.00
2019-01-05T03:59:24.876Z,0.00
2019-01-05T04:00:16.305Z,0.00
2019-01-05T04:01:24.926Z,0.00
2019-01-05T04:02:24.392Z,0.00
2019-01-05T04:03:24.997Z,0.00
2019-01-05T04:04:25.040Z,0.00
2019-01-05T04:05:25.070Z,0.00
2019-01-05T04:06:16.239Z,0.00
2019-01-05T04:07:25.329Z,0.00
2019-01-05T04:08:16.215Z,0.00
2019-01-05T04:09:16.230Z,0.00
2019-01-05T04:10:16.201Z,0.00
2019-01-05T04:11:16.187Z,0.00
2019-01-05T04:12:16.178Z,0.00
2019-01-05T04:13:16.179Z,0.00
2019-01-05T04:14:16.152Z,0.00
2019-01-05T04:15:16.167Z,0.00
2019-01-05T04:16:16.137Z,0.00
2019-01-05T04:17:16.125Z,0.00
2019-01-05T04:18:16.111Z,0.00
2019-01-05T04:19:16.109Z,0.00
2019-01-05T04:20:16.079Z,0.00
2019-01-05T04:21:16.093Z,0.00
2019-01-05T04:22:16.065Z,0.00
2019-01-05T04:23:16.055Z,0.00
2019-01-05T04:24:16.045Z,0.00
2019-01-05T04:25:16.055Z,0.00
2019-01-05T04:26:16.023Z,0.00
2019-01-05T04:27:16.027Z,0.00
2019-01-05T04:28:15.994Z,0.00
2019-01-05T04:29:15.994Z,0.00
2019-01-05T04:30:15.975Z,0.00
2019-01-05T04:31:15.991Z,0.00
2019-01-05T04:32:15.958Z,0.00
2019-01-05T04:33:15.944Z,0.00
2019-01-05T04:34:15.934Z,0.00
2019-01-05T04:35:15.927Z,0.00
2019-01-05T04:36:15.951Z,0.00
2019-01-05T04:37:15.905Z,0.00
2019-01-05T04:38:15.894Z,0.00
2019-01-05T04:39:15.880Z,0.00
2019-01-05T04:40:15.879Z,0.00
2019-01-05T04:41:15.860Z,0.00
2019-01-05T04:42:15.871Z,0.00
2019-01-05T04:43:15.848Z,0.00
2019-01-05T04:44:15.855Z,0.00
2019-01-05T04:45:15.823Z,0.00
2019-01-05T04:46:15.816Z,0.00
2019-01-05T04:47:15.791Z,0.00
2019-01-05T04:48:15.804Z,0.00
2019-01-05T04:49:15.801Z,0.00
2019-01-05T04:50:15.790Z,0.00
2019-01-05T04:51:15.752Z,0.00
2019-01-05T04:52:15.742Z,0.00
2019-01-05T04:53:15.754Z,0.00
2019-01-05T04:54:15.722Z,0.00
2019-01-05T04:55:15.714Z,0.00
2019-01-05T04:56:15.703Z,0.00
2019-01-05T04:57:15.693Z,0.00
2019-01-05T04:58:15.714Z,0.00
2019-01-05T04:59:15.665Z,0.00
2019-01-05T05:00:15.656Z,0.00
2019-01-05T05:01:15.642Z,0.00
2019-01-05T05:02:15.639Z,0.00
2019-01-05T05:03:15.628Z,0.00
2019-01-05T05:04:15.638Z,0.00
2019-01-05T05:05:15.599Z,0.00
2019-01-05T05:06:15.592Z,0.00
2019-01-05T05:07:15.584Z,0.00
2019-01-05T05:08:15.581Z,0.00
2019-01-05T05:09:15.567Z,0.00
2019-01-05T05:10:15.575Z,0.00
2019-01-05T05:11:15.539Z,0.00
2019-01-05T05:12:15.540Z,0.00
2019-01-05T05:13:15.521Z,0.00
2019-01-05T05:14:15.539Z,0.00
2019-01-05T05:15:15.501Z,0.00
2019-01-05T05:16:15.498Z,0.00
2019-01-05T05:17:15.480Z,0.00
2019-01-05T05:18:15.472Z,0.00
2019-01-05T05:19:15.476Z,0.00
2019-01-05T05:21:32.527Z,0.00
2019-01-05T05:22:32.491Z,0.00
2019-01-05T05:23:32.519Z,0.00
2019-01-05T05:24:32.503Z,0.00
2019-01-05T05:25:32.465Z,0.00
2019-01-05T05:26:32.443Z,0.00
2019-01-05T05:27:32.434Z,0.00
2019-01-05T05:28:32.423Z,0.00
2019-01-05T05:29:32.414Z,0.00
2019-01-05T05:30:32.439Z,0.00
2019-01-05T05:31:32.399Z,0.00
2019-01-05T05:32:32.396Z,0.00
2019-01-05T05:33:32.373Z,0.00
2019-01-05T05:34:32.362Z,0.00
2019-01-05T05:35:32.352Z,0.00
2019-01-05T05:36:32.362Z,0.00
2019-01-05T05:37:32.328Z,0.00
2019-01-05T05:38:32.333Z,0.00
2019-01-05T05:39:32.313Z,0.00
2019-01-05T05:40:32.295Z,0.00
2019-01-05T05:41:32.315Z,0.00
2019-01-05T05:42:32.280Z,0.00
2019-01-05T05:43:32.271Z,0.00
2019-01-05T05:44:32.262Z,0.00
2019-01-05T05:45:32.251Z,0.00
2019-01-05T05:46:32.229Z,0.00
2019-01-05T05:47:32.258Z,0.00
2019-01-05T05:48:32.210Z,0.00
2019-01-05T05:49:32.229Z,0.00
2019-01-05T05:50:32.199Z,0.00
2019-01-05T05:51:32.187Z,0.00
2019-01-05T05:52:32.182Z,0.00
2019-01-05T05:53:32.192Z,0.00
2019-01-05T05:54:32.158Z,0.00
2019-01-05T05:55:32.136Z,0.00
2019-01-05T05:56:32.131Z,0.00
2019-01-05T05:57:32.120Z,0.00
2019-01-05T05:58:32.127Z,0.00
2019-01-05T05:59:32.094Z,0.00
2019-01-05T06:00:32.080Z,0.00
2019-01-05T06:01:32.070Z,0.00
2019-01-05T06:02:32.068Z,0.00
2019-01-05T06:03:32.089Z,0.00
2019-01-05T06:04:32.047Z,0.00
2019-01-05T06:05:32.038Z,0.00
2019-01-05T06:06:32.017Z,0.00
2019-01-05T06:07:32.003Z,0.00
2019-01-05T06:08:31.996Z,0.00
2019-01-05T06:09:32.008Z,0.00
2019-01-05T06:10:31.978Z,0.00
2019-01-05T06:11:31.971Z,0.00
2019-01-05T06:12:31.949Z,0.00
2019-01-05T06:13:31.963Z,0.00
2019-01-05T06:14:31.972Z,0.00
2019-01-05T06:15:31.952Z,0.00
2019-01-05T06:16:31.921Z,0.00
2019-01-05T06:17:31.908Z,0.00
2019-01-05T06:18:31.888Z,0.00
2019-01-05T06:19:31.924Z,0.00
2019-01-05T06:20:31.875Z,0.00
2019-01-05T06:21:31.855Z,0.00
2019-01-05T06:22:31.849Z,0.00
2019-01-05T06:23:31.840Z,0.00
2019-01-05T06:24:31.830Z,0.00
2019-01-05T06:25:31.840Z,0.00
2019-01-05T06:26:31.802Z,0.00
2019-01-05T06:27:31.792Z,0.00
2019-01-05T06:28:31.789Z,0.00
2019-01-05T06:29:31.781Z,0.00
2019-01-05T06:30:31.783Z,0.00
2019-01-05T06:31:31.749Z,0.00
2019-01-05T06:32:31.738Z,0.00
2019-01-05T06:33:31.726Z,0.00
2019-01-05T06:34:31.722Z,0.00
2019-01-05T06:35:31.745Z,0.00
2019-01-05T06:36:31.700Z,0.00
2019-01-05T06:37:31.690Z,0.00
2019-01-05T06:38:31.680Z,0.00
2019-01-05T06:39:31.664Z,0.00
2019-01-05T06:40:31.651Z,0.00
2019-01-05T06:41:31.683Z,0.00
2019-01-05T06:42:31.638Z,0.00
2019-01-05T06:43:31.637Z,0.00
2019-01-05T06:44:31.613Z,0.00
2019-01-05T06:45:31.601Z,0.00
2019-01-05T06:46:31.632Z,0.00
2019-01-05T06:47:31.589Z,0.00
2019-01-05T06:48:31.571Z,0.00
2019-01-05T06:49:31.564Z,0.00
2019-01-05T06:50:31.544Z,0.00
2019-01-05T06:51:31.531Z,0.00
2019-01-05T06:52:31.543Z,0.00
2019-01-05T06:53:31.512Z,0.00
2019-01-05T06:54:31.506Z,0.00
2019-01-05T06:55:31.503Z,0.00
2019-01-05T06:56:31.491Z,0.00
2019-01-05T06:57:31.505Z,0.00
2019-01-05T06:58:31.465Z,0.00
2019-01-05T06:59:31.458Z,0.00
2019-01-05T07:00:31.445Z,0.00
2019-01-05T07:01:31.436Z,0.00
2019-01-05T07:02:31.420Z,0.00
2019-01-05T07:03:31.442Z,0.00
2019-01-05T07:04:31.394Z,0.00
2019-01-05T07:05:31.429Z,0.00
2019-01-05T07:06:31.392Z,0.00
2019-01-05T07:07:31.372Z,0.00
2019-01-05T07:08:31.382Z,0.00
2019-01-05T07:09:31.359Z,0.00
2019-01-05T07:10:31.332Z,0.00
2019-01-05T07:11:31.321Z,0.00
2019-01-05T07:12:31.308Z,0.00
2019-01-05T07:13:31.333Z,0.00
2019-01-05T07:14:31.299Z,0.00
2019-01-05T07:15:31.282Z,0.00
2019-01-05T07:16:31.267Z,0.00
2019-01-05T07:17:31.255Z,0.00
2019-01-05T07:18:31.251Z,0.00
2019-01-05T07:19:31.281Z,0.00
2019-01-05T07:20:31.234Z,0.00
2019-01-05T07:21:31.218Z,0.00
2019-01-05T07:22:31.202Z,0.00
2019-01-05T07:23:31.192Z,0.00
2019-01-05T07:24:31.182Z,0.00
2019-01-05T07:25:31.192Z,0.00
2019-01-05T07:26:31.172Z,0.00
2019-01-05T07:27:31.153Z,0.00
2019-01-05T07:28:31.144Z,0.00
2019-01-05T07:29:31.182Z,0.00
2019-01-05T07:30:31.128Z,0.00
2019-01-05T07:31:31.112Z,0.00
2019-01-05T07:32:31.109Z,0.00
2019-01-05T07:33:31.092Z,0.00
2019-01-05T07:34:31.075Z,0.00
2019-01-05T07:35:31.086Z,0.00
2019-01-05T07:36:31.052Z,0.00
2019-01-05T07:37:31.044Z,0.00
2019-01-05T07:38:31.041Z,0.00
2019-01-05T07:39:31.028Z,0.00
2019-01-05T07:40:31.035Z,0.00
2019-01-05T07:41:31.017Z,0.00
2019-01-05T07:42:30.990Z,0.00
2019-01-05T07:43:32.051Z,0.00
2019-01-05T07:44:30.968Z,0.00
2019-01-05T07:45:30.993Z,0.00
2019-01-05T07:46:30.954Z,0.00
2019-01-05T07:47:30.947Z,0.00
2019-01-05T07:48:30.927Z,0.00
2019-01-05T07:49:30.915Z,5.62
2019-01-05T07:50:30.911Z,0.00
2019-01-05T07:51:30.931Z,0.00
2019-01-05T07:52:30.892Z,5.62
2019-01-05T07:53:30.885Z,5.62
2019-01-05T07:54:30.860Z,5.62
2019-01-05T07:55:30.849Z,5.62
2019-01-05T07:56:30.837Z,5.62
2019-01-05T07:57:30.851Z,5.62
2019-01-05T07:58:30.832Z,5.62
2019-01-05T07:59:30.818Z,11.25
2019-01-05T08:00:30.803Z,11.25
2019-01-05T08:01:30.793Z,11.25
2019-01-05T08:02:30.794Z,5.62
2019-01-05T08:03:30.787Z,5.62
2019-01-05T08:04:30.756Z,5.62
2019-01-05T08:05:30.751Z,5.62
2019-01-05T08:06:30.796Z,5.62
2019-01-05T08:07:30.727Z,5.62
2019-01-05T08:08:30.737Z,5.62
2019-01-05T08:09:30.699Z,5.62
2019-01-05T08:10:30.701Z,5.62
2019-01-05T08:11:30.688Z,5.62
2019-01-05T08:12:30.672Z,11.25
2019-01-05T08:13:30.690Z,16.88
2019-01-05T08:14:30.649Z,11.25
2019-01-05T08:15:30.636Z,22.50
2019-01-05T08:16:30.628Z,11.25
2019-01-05T08:17:30.621Z,16.88
2019-01-05T08:18:30.607Z,16.88
2019-01-05T08:19:30.625Z,22.50
2019-01-05T08:20:31.442Z,22.50
2019-01-05T08:21:30.571Z,22.50
2019-01-05T08:22:30.569Z,22.50
2019-01-05T08:23:30.568Z,22.50
2019-01-05T08:24:30.568Z,28.12
2019-01-05T08:25:30.552Z,28.12
2019-01-05T08:26:30.514Z,33.75
2019-01-05T08:27:30.507Z,45.00
2019-01-05T08:28:30.492Z,56.25
2019-01-05T08:29:30.483Z,67.50
2019-01-05T08:30:30.500Z,56.25
2019-01-05T08:31:30.465Z,67.50
2019-01-05T08:32:30.482Z,73.12
2019-01-05T08:33:30.447Z,78.75
2019-01-05T08:34:30.425Z,78.75
2019-01-05T08:35:30.416Z,50.62
2019-01-05T08:36:30.411Z,39.38
2019-01-05T08:37:30.434Z,56.25
2019-01-05T08:38:30.386Z,56.25
2019-01-05T08:39:30.384Z,61.88
2019-01-05T08:40:30.359Z,56.25
2019-01-05T08:41:30.350Z,45.00
2019-01-05T08:42:30.361Z,56.25
2019-01-05T08:43:30.353Z,67.50
2019-01-05T08:44:30.325Z,61.88
2019-01-05T08:45:30.314Z,67.50
2019-01-05T08:46:30.297Z,73.12
2019-01-05T08:47:30.283Z,67.50
2019-01-05T08:48:30.306Z,61.88
2019-01-05T08:49:30.274Z,67.50
2019-01-05T08:50:30.256Z,50.62
2019-01-05T08:51:30.244Z,45.00
2019-01-05T08:52:30.233Z,45.00
2019-01-05T08:53:30.218Z,45.00
2019-01-05T08:54:30.232Z,50.62
2019-01-05T08:55:30.207Z,50.62
2019-01-05T08:56:30.191Z,39.38
2019-01-05T08:57:30.181Z,39.38
2019-01-05T08:58:30.199Z,39.38
2019-01-05T08:59:30.149Z,45.00
2019-01-05T09:00:30.157Z,39.38
2019-01-05T09:01:30.138Z,45.00
2019-01-05T09:02:30.327Z,50.62
2019-01-05T09:03:30.123Z,56.25
2019-01-05T09:04:30.152Z,73.12
2019-01-05T09:05:30.097Z,73.12
2019-01-05T09:06:30.129Z,73.12
2019-01-05T09:07:30.074Z,67.50
2019-01-05T09:08:30.062Z,78.75
2019-01-05T09:09:30.089Z,78.75
2019-01-05T09:10:30.038Z,61.88
2019-01-05T09:11:30.028Z,90.00
2019-01-05T09:12:30.019Z,106.88
2019-01-05T09:13:30.007Z,101.25
2019-01-05T09:14:30.004Z,84.38
2019-01-05T09:15:30.310Z,67.50
2019-01-05T09:16:29.996Z,61.88
2019-01-05T09:17:29.961Z,90.00
2019-01-05T09:18:29.980Z,118.12
2019-01-05T09:19:29.943Z,230.62
2019-01-05T09:20:30.116Z,331.88
2019-01-05T09:21:30.011Z,230.62
2019-01-05T09:22:29.906Z,253.12
2019-01-05T09:23:29.899Z,157.50
2019-01-05T09:24:29.888Z,146.25
2019-01-05T09:25:29.909Z,129.38
2019-01-05T09:26:29.875Z,118.12
2019-01-05T09:27:29.859Z,123.75
2019-01-05T09:28:29.847Z,112.50
2019-01-05T09:29:29.835Z,112.50
2019-01-05T09:30:29.883Z,101.25
2019-01-05T09:31:29.818Z,106.88
2019-01-05T09:32:29.836Z,168.75
2019-01-05T09:33:29.805Z,129.38
2019-01-05T09:34:29.793Z,129.38
2019-01-05T09:35:29.768Z,258.75
2019-01-05T09:36:29.800Z,202.50
2019-01-05T09:37:29.776Z,528.75
2019-01-05T09:38:29.753Z,613.12
2019-01-05T09:39:29.746Z,517.50
2019-01-05T09:40:29.716Z,225.00
2019-01-05T09:41:29.709Z,196.88
2019-01-05T09:42:29.710Z,196.88
2019-01-05T09:43:29.680Z,174.38
2019-01-05T09:44:29.682Z,219.38
2019-01-05T09:45:29.658Z,180.00
2019-01-05T09:46:29.642Z,208.12
2019-01-05T09:47:29.678Z,157.50
2019-01-05T09:48:29.629Z,129.38
2019-01-05T09:49:29.627Z,196.88
2019-01-05T09:50:29.617Z,613.12
2019-01-05T09:51:29.592Z,1023.75
2019-01-05T09:52:29.686Z,230.62
2019-01-05T09:53:29.673Z,855.00
2019-01-05T09:54:29.619Z,90.00
2019-01-05T09:55:29.596Z,78.75
2019-01-05T09:56:29.585Z,78.75
2019-01-05T09:57:29.576Z,90.00
2019-01-05T09:58:29.596Z,78.75
2019-01-05T09:59:29.561Z,95.62
2019-01-05T10:00:29.517Z,78.75
2019-01-05T10:01:30.722Z,84.38
2019-01-05T10:02:30.440Z,78.75
2019-01-05T10:03:29.606Z,90.00
2019-01-05T10:04:29.523Z,73.12
2019-01-05T10:05:29.446Z,61.88
2019-01-05T10:06:30.806Z,73.12
2019-01-05T10:07:29.421Z,106.88
2019-01-05T10:08:29.400Z,95.62
2019-01-05T10:09:29.855Z,90.00
2019-01-05T10:10:29.383Z,84.38
2019-01-05T10:11:29.416Z,135.00
2019-01-05T10:12:29.366Z,135.00
2019-01-05T10:13:29.369Z,129.38
2019-01-05T10:14:29.386Z,146.25
2019-01-05T10:15:29.370Z,112.50
2019-01-05T10:16:29.384Z,146.25
2019-01-05T10:17:30.300Z,168.75
2019-01-05T10:18:29.302Z,219.38
2019-01-05T10:19:29.464Z,185.62
2019-01-05T10:20:29.309Z,185.62
2019-01-05T10:21:29.397Z,180.00
2019-01-05T10:22:29.295Z,140.62
2019-01-05T10:23:29.275Z,106.88
2019-01-05T10:24:29.257Z,180.00
2019-01-05T10:25:29.275Z,163.12
2019-01-05T10:26:29.202Z,202.50
2019-01-05T10:27:29.223Z,202.50
2019-01-05T10:28:29.187Z,151.88
2019-01-05T10:29:29.180Z,146.25
2019-01-05T10:30:29.177Z,129.38
2019-01-05T10:31:29.152Z,202.50
2019-01-05T10:32:29.170Z,202.50
2019-01-05T10:33:29.131Z,219.38
2019-01-05T10:34:29.124Z,191.25
2019-01-05T10:35:29.126Z,208.12
2019-01-05T10:36:29.112Z,253.12
2019-01-05T10:37:29.128Z,292.50
2019-01-05T10:38:29.111Z,382.50
2019-01-05T10:39:29.062Z,309.38
2019-01-05T10:40:29.206Z,360.00
2019-01-05T10:41:29.059Z,405.00
2019-01-05T10:42:29.085Z,236.25
2019-01-05T10:43:29.029Z,168.75
2019-01-05T10:44:29.015Z,157.50
2019-01-05T10:45:29.004Z,135.00
2019-01-05T10:46:28.995Z,146.25
2019-01-05T10:47:28.998Z,163.12
2019-01-05T10:48:29.002Z,146.25
2019-01-05T10:49:28.962Z,123.75
2019-01-05T10:50:29.059Z,140.62
2019-01-05T10:51:28.947Z,106.88
2019-01-05T10:52:28.946Z,129.38
2019-01-05T10:53:28.928Z,101.25
2019-01-05T10:54:28.940Z,84.38
2019-01-05T10:55:28.903Z,118.12
2019-01-05T10:56:28.894Z,151.88
2019-01-05T10:57:28.913Z,151.88
2019-01-05T10:58:28.865Z,123.75
2019-01-05T10:59:28.859Z,95.62
2019-01-05T11:00:28.848Z,118.12
2019-01-05T11:01:28.840Z,112.50
2019-01-05T11:02:28.890Z,101.25
2019-01-05T11:03:28.802Z,118.12
2019-01-05T11:04:28.824Z,84.38
2019-01-05T11:05:28.796Z,95.62
2019-01-05T11:06:28.782Z,95.62
2019-01-05T11:07:28.769Z,78.75
2019-01-05T11:08:28.784Z,78.75
2019-01-05T11:09:28.744Z,90.00
2019-01-05T11:10:28.728Z,78.75
2019-01-05T11:11:28.747Z,61.88
2019-01-05T11:12:28.701Z,67.50
2019-01-05T11:13:28.726Z,61.88
2019-01-05T11:14:28.684Z,84.38
2019-01-05T11:15:28.676Z,90.00
2019-01-05T11:16:28.702Z,101.25
2019-01-05T11:17:28.660Z,84.38
2019-01-05T11:18:28.678Z,84.38
2019-01-05T11:19:28.647Z,90.00
2019-01-05T11:20:28.624Z,95.62
2019-01-05T11:21:28.618Z,84.38
2019-01-05T11:22:28.599Z,73.12
2019-01-05T11:23:28.595Z,67.50
2019-01-05T11:24:28.610Z,50.62
2019-01-05T11:25:28.563Z,50.62
2019-01-05T11:26:28.562Z,84.38
2019-01-05T11:27:29.243Z,90.00
2019-01-05T11:28:28.550Z,101.25
2019-01-05T11:29:28.544Z,95.62
2019-01-05T11:30:28.650Z,106.88
2019-01-05T11:31:28.503Z,146.25
2019-01-05T11:32:28.530Z,163.12
2019-01-05T11:33:28.483Z,151.88
2019-01-05T11:34:28.499Z,146.25
2019-01-05T11:35:28.463Z,163.12
2019-01-05T11:36:28.445Z,151.88
2019-01-05T11:37:28.462Z,219.38
2019-01-05T11:38:28.447Z,146.25
2019-01-05T11:39:28.415Z,151.88
2019-01-05T11:40:28.445Z,140.62
2019-01-05T11:41:28.410Z,129.38
2019-01-05T11:42:28.378Z,146.25
2019-01-05T11:43:28.376Z,151.88
2019-01-05T11:44:28.374Z,146.25
2019-01-05T11:45:28.352Z,157.50
2019-01-05T11:46:28.364Z,146.25
2019-01-05T11:47:28.336Z,146.25
2019-01-05T11:48:28.316Z,163.12
2019-01-05T11:49:28.312Z,157.50
2019-01-05T11:50:28.312Z,180.00
2019-01-05T11:51:28.322Z,112.50
2019-01-05T11:52:28.278Z,135.00
2019-01-05T11:53:28.266Z,129.38
2019-01-05T11:54:28.256Z,157.50
2019-01-05T11:55:28.292Z,151.88
2019-01-05T11:56:28.289Z,140.62
2019-01-05T11:57:28.248Z,123.75
2019-01-05T11:58:28.251Z,90.00
2019-01-05T11:59:28.231Z,84.38
2019-01-05T12:00:28.187Z,112.50
2019-01-05T12:01:28.179Z,95.62
2019-01-05T12:02:28.205Z,106.88
2019-01-05T12:03:28.148Z,129.38
2019-01-05T12:04:28.155Z,118.12
2019-01-05T12:05:28.193Z,112.50
2019-01-05T12:06:28.127Z,90.00
2019-01-05T12:07:28.112Z,78.75
2019-01-05T12:08:28.118Z,73.12
2019-01-05T12:09:28.134Z,67.50
2019-01-05T12:10:28.089Z,56.25
2019-01-05T12:11:28.085Z,61.88
2019-01-05T12:12:28.065Z,61.88
2019-01-05T12:13:28.052Z,73.12
2019-01-05T12:14:28.046Z,67.50
2019-01-05T12:15:28.063Z,56.25
2019-01-05T12:16:28.022Z,56.25
2019-01-05T12:17:28.005Z,61.88
2019-01-05T12:18:28.003Z,73.12
2019-01-05T12:19:27.988Z,67.50
2019-01-05T12:20:28.007Z,78.75
2019-01-05T12:21:27.972Z,78.75
2019-01-05T12:22:27.961Z,90.00
2019-01-05T12:23:27.950Z,84.38
2019-01-05T12:24:27.936Z,73.12
2019-01-05T12:25:27.933Z,61.88
2019-01-05T12:26:27.942Z,50.62
2019-01-05T12:27:27.895Z,50.62
2019-01-05T12:28:27.887Z,45.00
2019-01-05T12:29:27.879Z,39.38
2019-01-05T12:30:27.868Z,45.00
2019-01-05T12:31:27.859Z,50.62
2019-01-05T12:32:27.870Z,33.75
2019-01-05T12:33:27.833Z,28.12
2019-01-05T12:34:27.823Z,33.75
2019-01-05T12:35:27.815Z,50.62
2019-01-05T12:36:27.874Z,56.25
2019-01-05T12:37:27.840Z,45.00
2019-01-05T12:38:27.769Z,39.38
2019-01-05T12:39:27.766Z,33.75
2019-01-05T12:40:27.755Z,28.12
2019-01-05T12:41:27.766Z,28.12
2019-01-05T12:42:27.739Z,22.50
2019-01-05T12:43:27.725Z,22.50
2019-01-05T12:44:27.715Z,16.88
2019-01-05T12:45:27.778Z,16.88
2019-01-05T12:46:27.716Z,16.88
2019-01-05T12:47:27.718Z,16.88
2019-01-05T12:48:27.696Z,16.88
2019-01-05T12:49:27.650Z,22.50
2019-01-05T12:50:27.644Z,22.50
2019-01-05T12:51:27.639Z,28.12
2019-01-05T12:52:27.620Z,33.75
2019-01-05T12:53:27.629Z,33.75
2019-01-05T12:54:27.612Z,39.38
2019-01-05T12:55:27.597Z,45.00
2019-01-05T12:56:27.580Z,39.38
2019-01-05T12:57:27.576Z,33.75
2019-01-05T12:58:27.591Z,45.00
2019-01-05T12:59:27.545Z,50.62
2019-01-05T13:00:27.544Z,45.00
2019-01-05T13:01:27.520Z,45.00
2019-01-05T13:02:27.562Z,50.62
2019-01-05T13:03:27.536Z,50.62
2019-01-05T13:04:27.498Z,61.88
2019-01-05T13:05:27.483Z,61.88